createdAt,value
2022-09-16T00:02:02.458Z,99991.00
2022-09-16T00:04:32.479Z,99986.28
2022-09-16T00:07:02.805Z,99991.19
2022-09-16T00:09:32.950Z,99989.38
2022-09-16T00:12:03.718Z,99982.78
2022-09-16T00:14:33.981Z,99986.13
2022-09-16T00:17:04.311Z,99980.81
2022-09-16T00:19:34.689Z,99977.97
2022-09-16T00:22:04.923Z,99981.53
2022-09-16T00:24:36.002Z,99983.03
2022-09-16T00:27:06.644Z,99977.13
2022-09-16T00:29:37.229Z,99983.41
2022-09-16T00:32:07.726Z,99979.72
2022-09-16T00:34:37.877Z,99973.59
2022-09-16T00:37:12.191Z,99985.00
2022-09-16T00:39:42.223Z,99985.06
2022-09-16T00:42:13.721Z,99983.25
2022-09-16T00:44:53.372Z,99971.81
2022-09-16T00:47:35.404Z,99976.75
2022-09-16T00:50:12.563Z,99971.19
2022-09-16T00:52:44.408Z,99968.84
2022-09-16T00:55:22.647Z,99965.72
2022-09-16T00:57:56.575Z,99977.66
2022-09-16T01:00:26.851Z,99971.25
2022-09-16T01:02:56.378Z,99968.09
2022-09-16T01:05:28.184Z,99970.34
2022-09-16T01:07:58.308Z,99976.13
2022-09-16T01:10:30.236Z,99968.88
2022-09-16T01:13:12.752Z,99963.53
2022-09-16T01:15:51.841Z,99958.22
2022-09-16T01:18:44.910Z,99955.88
2022-09-16T01:21:24.878Z,99958.06
2022-09-16T01:24:22.581Z,99967.34
2022-09-16T01:27:21.509Z,99970.06
2022-09-16T01:30:18.346Z,99976.63
2022-09-16T01:32:56.252Z,99978.06
2022-09-16T01:35:41.470Z,99974.88
2022-09-16T01:38:21.164Z,99973.56
2022-09-16T01:40:57.337Z,99957.91
2022-09-16T01:43:37.416Z,99952.28
2022-09-16T01:46:48.106Z,99959.06
2022-09-16T01:49:50.593Z,99949.41
2022-09-16T01:52:46.072Z,99956.97
2022-09-16T01:55:30.671Z,99945.13
2022-09-16T01:58:24.801Z,99940.31
2022-09-16T02:01:01.347Z,99935.97
2022-09-16T02:03:38.822Z,99940.59
2022-09-16T02:06:14.202Z,99930.34
2022-09-16T02:09:03.790Z,99923.31
2022-09-16T02:11:34.992Z,99927.66
2022-09-16T02:14:19.783Z,99921.72
2022-09-16T02:16:59.563Z,99914.97
2022-09-16T02:19:38.761Z,99911.16
2022-09-16T02:22:15.087Z,99909.00
2022-09-16T02:24:48.515Z,99904.16
2022-09-16T02:27:21.900Z,99896.28
2022-09-16T02:30:05.524Z,99895.22
2022-09-16T02:32:40.738Z,99883.28
2022-09-16T02:35:15.158Z,99889.25
2022-09-16T02:37:59.911Z,99883.81
2022-09-16T02:40:36.699Z,99887.59
2022-09-16T02:43:08.023Z,99878.63
2022-09-16T02:45:56.668Z,99876.75
2022-09-16T02:48:58.000Z,99873.72
2022-09-16T02:51:59.552Z,99870.19
2022-09-16T02:54:48.708Z,99865.28
2022-09-16T02:57:19.005Z,99867.72
2022-09-16T02:59:49.164Z,99855.84
2022-09-16T03:02:20.324Z,99855.25
2022-09-16T03:04:51.296Z,99847.38
2022-09-16T03:07:21.659Z,99841.13
2022-09-16T03:09:53.264Z,99847.84
2022-09-16T03:12:41.568Z,99842.97
2022-09-16T03:15:59.043Z,99828.31
2022-09-16T03:18:53.715Z,99832.63
2022-09-16T03:21:32.258Z,99828.78
2022-09-16T03:24:20.675Z,99816.56
2022-09-16T03:27:11.213Z,99821.66
2022-09-16T03:29:59.284Z,99816.47
2022-09-16T03:32:44.961Z,99804.28
2022-09-16T03:35:24.201Z,99802.63
2022-09-16T03:37:57.045Z,99792.84
2022-09-16T03:40:28.094Z,99795.00
2022-09-16T03:43:00.197Z,99776.25
2022-09-16T03:45:30.269Z,99776.22
2022-09-16T03:48:00.274Z,99771.03
2022-09-16T03:50:30.355Z,99775.88
2022-09-16T03:53:00.247Z,99765.84
2022-09-16T03:55:29.590Z,99769.06
2022-09-16T03:57:59.559Z,99766.91
2022-09-16T04:00:30.476Z,99766.59
2022-09-16T04:03:02.168Z,99760.09
2022-09-16T04:05:32.355Z,99757.91
2022-09-16T04:08:03.429Z,99751.38
2022-09-16T04:10:36.118Z,99746.47
2022-09-16T04:13:06.638Z,99748.63
2022-09-16T04:15:40.328Z,99744.81
2022-09-16T04:18:11.028Z,99742.59
2022-09-16T04:20:41.298Z,99742.88
2022-09-16T04:23:12.912Z,99727.16
2022-09-16T04:25:43.085Z,99731.75
2022-09-16T04:28:13.613Z,99722.53
2022-09-16T04:30:44.027Z,99720.91
2022-09-16T04:33:14.305Z,99713.31
2022-09-16T04:35:44.467Z,99707.28
2022-09-16T04:38:14.724Z,99703.72
2022-09-16T04:40:45.042Z,99703.16
2022-09-16T04:43:16.714Z,99698.75
2022-09-16T04:45:47.445Z,99694.66
2022-09-16T04:48:20.692Z,99697.06
2022-09-16T04:50:51.277Z,99682.13
2022-09-16T04:53:22.785Z,99683.19
2022-09-16T04:55:52.954Z,99672.31
2022-09-16T04:58:24.173Z,99666.63
2022-09-16T05:00:53.767Z,99669.84
2022-09-16T05:03:24.185Z,99666.56
2022-09-16T05:05:54.322Z,99667.56
2022-09-16T05:08:24.657Z,99662.69
2022-09-16T05:10:55.340Z,99664.00
2022-09-16T05:13:26.296Z,99648.22
2022-09-16T05:15:56.834Z,99643.28
2022-09-16T05:18:26.772Z,99637.56
2022-09-16T05:21:01.727Z,99638.91
2022-09-16T05:23:47.005Z,99634.50
2022-09-16T05:26:19.474Z,99626.34
2022-09-16T05:28:52.369Z,99624.66
2022-09-16T05:31:30.657Z,99618.66
2022-09-16T05:34:15.003Z,99628.34
2022-09-16T05:36:46.059Z,99622.59
2022-09-16T05:39:24.014Z,99625.56
2022-09-16T05:42:00.239Z,99621.13
2022-09-16T05:44:31.170Z,99609.47
2022-09-16T05:47:01.220Z,99601.53
2022-09-16T05:49:31.431Z,99610.69
2022-09-16T05:52:01.496Z,99604.91
2022-09-16T05:54:30.953Z,99604.00
2022-09-16T05:57:06.025Z,99605.34
2022-09-16T05:59:37.151Z,99609.06
2022-09-16T06:02:07.318Z,99598.69
2022-09-16T06:04:38.502Z,99598.91
2022-09-16T06:07:08.662Z,99590.16
2022-09-16T06:09:38.819Z,99587.44
2022-09-16T06:12:08.987Z,99587.06
2022-09-16T06:14:38.946Z,99580.22
2022-09-16T06:17:08.942Z,99577.22
2022-09-16T06:19:38.403Z,99572.81
2022-09-16T06:22:08.657Z,99572.47
2022-09-16T06:24:39.623Z,99571.38
2022-09-16T06:27:11.000Z,99561.50
2022-09-16T06:29:40.990Z,99566.34
2022-09-16T06:32:11.566Z,99570.41
2022-09-16T06:34:41.708Z,99565.16
2022-09-16T06:37:14.690Z,99568.09
2022-09-16T06:39:45.015Z,99563.97
2022-09-16T06:42:15.991Z,99561.94
2022-09-16T06:44:47.057Z,99550.19
2022-09-16T06:47:17.225Z,99551.47
2022-09-16T06:49:48.107Z,99551.66
2022-09-16T06:52:17.697Z,99548.66
2022-09-16T06:54:49.264Z,99547.25
2022-09-16T06:57:24.424Z,99537.66
2022-09-16T06:59:55.076Z,99540.09
2022-09-16T07:02:25.999Z,99542.69
2022-09-16T07:04:57.238Z,99535.34
2022-09-16T07:07:28.290Z,99540.97
2022-09-16T07:09:59.001Z,99533.34
2022-09-16T07:12:31.127Z,99523.44
2022-09-16T07:15:01.623Z,99523.94
2022-09-16T07:17:31.641Z,99523.63
2022-09-16T07:20:01.799Z,99515.66
2022-09-16T07:22:33.889Z,99508.50
2022-09-16T07:25:04.305Z,99520.50
2022-09-16T07:27:35.004Z,99519.25
2022-09-16T07:30:08.952Z,99523.91
2022-09-16T07:32:41.050Z,99516.75
2022-09-16T07:35:11.375Z,99523.22
2022-09-16T07:37:42.789Z,99519.38
2022-09-16T07:40:15.679Z,99503.13
2022-09-16T07:42:46.993Z,99513.09
2022-09-16T07:45:17.723Z,99516.28
2022-09-16T07:47:51.743Z,99509.59
2022-09-16T07:50:21.274Z,99520.91
2022-09-16T07:52:55.591Z,99517.84
2022-09-16T07:55:25.551Z,99515.63
2022-09-16T07:57:56.108Z,99517.72
2022-09-16T08:00:28.785Z,99511.97
2022-09-16T08:02:59.642Z,99511.97
2022-09-16T08:05:29.972Z,99519.34
2022-09-16T08:07:59.900Z,99507.34
2022-09-16T08:10:32.334Z,99515.16
2022-09-16T08:13:03.254Z,99512.13
2022-09-16T08:15:33.786Z,99516.00
2022-09-16T08:18:04.272Z,99516.31
2022-09-16T08:20:34.817Z,99510.84
2022-09-16T08:23:04.957Z,99508.13
2022-09-16T08:25:35.693Z,99505.91
2022-09-16T08:28:06.558Z,99501.91
2022-09-16T08:30:37.420Z,99506.03
2022-09-16T08:33:07.720Z,99503.59
2022-09-16T08:35:38.513Z,99498.47
2022-09-16T08:38:08.864Z,99496.88
2022-09-16T08:40:39.615Z,99497.50
2022-09-16T08:43:22.617Z,99497.50
2022-09-16T08:46:11.429Z,99495.69
2022-09-16T08:49:29.161Z,99484.91
2022-09-16T08:52:01.990Z,99495.97
2022-09-16T08:54:42.455Z,99494.16
2022-09-16T08:57:28.023Z,99493.47
2022-09-16T09:00:15.955Z,99503.34
2022-09-16T09:03:09.002Z,99505.88
2022-09-16T09:05:52.267Z,99501.66
2022-09-16T09:08:40.627Z,99506.41
2022-09-16T09:11:42.074Z,99507.63
2022-09-16T09:14:26.225Z,99506.13
2022-09-16T09:17:22.772Z,99525.28
2022-09-16T09:20:09.737Z,99521.84
2022-09-16T09:23:01.038Z,99516.84
2022-09-16T09:25:49.158Z,99526.19
2022-09-16T09:28:43.766Z,99526.31
2022-09-16T09:31:19.037Z,99520.19
2022-09-16T09:34:18.175Z,99527.31
2022-09-16T09:37:21.115Z,99534.72
2022-09-16T09:40:28.537Z,99528.09
2022-09-16T09:43:22.548Z,99528.50
2022-09-16T09:46:09.174Z,99527.78
2022-09-16T09:48:53.665Z,99527.69
2022-09-16T09:51:23.583Z,99530.78
2022-09-16T09:53:59.461Z,99532.78
2022-09-16T09:56:46.516Z,99535.91
2022-09-16T09:59:32.587Z,99537.38
2022-09-16T10:02:04.509Z,99548.31
2022-09-16T10:04:41.234Z,99547.09
2022-09-16T10:07:15.234Z,99544.75
2022-09-16T10:10:02.909Z,99549.19
2022-09-16T10:12:36.337Z,99546.53
2022-09-16T10:15:07.813Z,99550.44
2022-09-16T10:17:38.168Z,99545.06
2022-09-16T10:20:27.472Z,99548.97
2022-09-16T10:23:08.787Z,99559.31
2022-09-16T10:25:39.520Z,99556.97
2022-09-16T10:28:25.693Z,99556.47
2022-09-16T10:31:01.309Z,99568.72
2022-09-16T10:33:36.356Z,99566.31
2022-09-16T10:36:13.006Z,99578.06
2022-09-16T10:38:46.342Z,99575.94
2022-09-16T10:41:29.608Z,99591.19
2022-09-16T10:44:02.501Z,99588.00
2022-09-16T10:46:33.653Z,99582.97
2022-09-16T10:49:12.704Z,99596.28
2022-09-16T10:51:43.127Z,99603.97
2022-09-16T10:54:24.769Z,99599.63
2022-09-16T10:56:55.118Z,99598.63
2022-09-16T10:59:25.894Z,99608.41
2022-09-16T11:02:31.053Z,99619.53
2022-09-16T11:05:42.453Z,99623.13
2022-09-16T11:08:31.073Z,99612.63
2022-09-16T11:11:11.881Z,99615.88
2022-09-16T11:13:57.119Z,99623.19
2022-09-16T11:16:54.519Z,99617.53
2022-09-16T11:19:38.214Z,99630.06
2022-09-16T11:22:32.037Z,99633.06
2022-09-16T11:25:11.488Z,99627.41
2022-09-16T11:28:03.851Z,99625.53
2022-09-16T11:30:42.233Z,99635.34
2022-09-16T11:33:38.909Z,99638.91
2022-09-16T11:36:15.095Z,99641.38
2022-09-16T11:38:55.366Z,99651.97
2022-09-16T11:41:38.659Z,99653.66
2022-09-16T11:44:41.629Z,99650.69
2022-09-16T11:47:23.704Z,99659.91
2022-09-16T11:50:06.229Z,99660.47
2022-09-16T11:52:51.914Z,99665.34
2022-09-16T11:55:53.881Z,99661.59
2022-09-16T11:58:32.960Z,99659.72
2022-09-16T12:01:26.395Z,99665.44
2022-09-16T12:04:15.636Z,99673.03
2022-09-16T12:07:03.293Z,99675.22
2022-09-16T12:09:42.473Z,99681.97
2022-09-16T12:12:23.296Z,99681.72
2022-09-16T12:15:05.853Z,99676.88
2022-09-16T12:17:41.068Z,99680.66
2022-09-16T12:20:17.442Z,99690.97
2022-09-16T12:22:54.199Z,99687.75
2022-09-16T12:25:33.217Z,99693.16
2022-09-16T12:28:23.670Z,99699.66
2022-09-16T12:31:42.439Z,99703.75
2022-09-16T12:34:35.776Z,99705.94
2022-09-16T12:37:27.357Z,99702.66
2022-09-16T12:39:57.978Z,99699.72
2022-09-16T12:42:46.805Z,99701.38
2022-09-16T12:45:53.589Z,99701.66
2022-09-16T12:48:43.296Z,99695.19
2022-09-16T12:51:39.529Z,99692.75
2022-09-16T12:54:12.913Z,99689.50
2022-09-16T12:57:01.530Z,99685.97
2022-09-16T12:59:42.290Z,99682.72
2022-09-16T13:02:25.878Z,99693.28
2022-09-16T13:05:02.525Z,99689.81
2022-09-16T13:07:38.702Z,99685.75
2022-09-16T13:10:54.587Z,99690.63
2022-09-16T13:13:50.418Z,99698.22
2022-09-16T13:16:39.110Z,99689.88
2022-09-16T13:19:28.848Z,99704.78
2022-09-16T13:22:16.858Z,99699.09
2022-09-16T13:25:24.491Z,99703.44
2022-09-16T13:28:04.206Z,99708.31
2022-09-16T13:30:40.292Z,99718.03
2022-09-16T13:33:13.866Z,99717.78
2022-09-16T13:35:51.112Z,99715.63
2022-09-16T13:38:21.588Z,99717.53
2022-09-16T13:41:03.573Z,99713.72
2022-09-16T13:43:44.547Z,99716.72
2022-09-16T13:46:29.358Z,99715.91
2022-09-16T13:49:15.628Z,99709.97
2022-09-16T13:51:49.465Z,99719.47
2022-09-16T13:54:53.502Z,99721.91
2022-09-16T13:57:57.368Z,99718.91
2022-09-16T14:00:39.316Z,99727.59
2022-09-16T14:03:36.611Z,99723.53
2022-09-16T14:06:37.217Z,99718.41
2022-09-16T14:09:45.985Z,99722.19
2022-09-16T14:12:38.179Z,99714.91
2022-09-16T14:15:10.026Z,99721.13
2022-09-16T14:17:53.796Z,99718.19
2022-09-16T14:20:28.189Z,99722.22
2022-09-16T14:23:21.307Z,99720.06
2022-09-16T14:25:55.306Z,99719.78
2022-09-16T14:28:31.277Z,99723.84
2022-09-16T14:31:08.217Z,99727.06
2022-09-16T14:33:44.370Z,99737.34
2022-09-16T14:36:25.913Z,99733.28
2022-09-16T14:39:12.417Z,99727.31
2022-09-16T14:41:49.529Z,99736.53
2022-09-16T14:44:24.202Z,99742.47
2022-09-16T14:47:08.783Z,99739.50
2022-09-16T14:49:45.135Z,99738.44
2022-09-16T14:52:24.583Z,99738.97
2022-09-16T14:54:55.413Z,99740.03
2022-09-16T14:57:34.783Z,99734.88
2022-09-16T15:00:14.842Z,99732.47
2022-09-16T15:02:52.535Z,99731.91
2022-09-16T15:05:29.209Z,99732.47
2022-09-16T15:08:40.177Z,99728.13
2022-09-16T15:11:29.916Z,99729.50
2022-09-16T15:14:10.883Z,99731.94
2022-09-16T15:16:55.962Z,99733.00
2022-09-16T15:19:40.052Z,99735.97
2022-09-16T15:22:19.799Z,99740.00
2022-09-16T15:24:54.869Z,99735.69
2022-09-16T15:27:29.753Z,99736.75
2022-09-16T15:30:06.828Z,99739.75
2022-09-16T15:32:47.934Z,99740.00
2022-09-16T15:35:24.988Z,99743.78
2022-09-16T15:37:57.019Z,99741.34
2022-09-16T15:40:28.245Z,99755.38
2022-09-16T15:43:19.907Z,99743.78
2022-09-16T15:46:25.643Z,99739.72
2022-09-16T15:49:04.255Z,99747.00
2022-09-16T15:51:51.408Z,99748.63
2022-09-16T15:54:34.000Z,99754.03
2022-09-16T15:57:13.414Z,99759.13
2022-09-16T15:59:56.319Z,99760.50
2022-09-16T16:02:41.488Z,99766.38
2022-09-16T16:05:24.088Z,99763.16
2022-09-16T16:08:12.682Z,99765.28
2022-09-16T16:10:43.322Z,99768.53
2022-09-16T16:13:13.612Z,99772.28
2022-09-16T16:15:44.046Z,99770.69
2022-09-16T16:18:15.257Z,99779.03
2022-09-16T16:20:46.975Z,99784.69
2022-09-16T16:23:17.578Z,99776.06
2022-09-16T16:25:50.918Z,99772.00
2022-09-16T16:28:22.454Z,99770.66
2022-09-16T16:30:53.203Z,99774.41
2022-09-16T16:33:25.006Z,99772.22
2022-09-16T16:35:55.755Z,99769.25
2022-09-16T16:38:26.600Z,99774.91
2022-09-16T16:40:56.937Z,99791.09
2022-09-16T16:43:27.490Z,99788.94
2022-09-16T16:46:01.342Z,99795.94
2022-09-16T16:48:32.173Z,99794.34
2022-09-16T16:51:06.244Z,99790.00
2022-09-16T16:53:37.056Z,99796.19
2022-09-16T16:56:16.054Z,99786.25
2022-09-16T16:58:46.390Z,99788.38
2022-09-16T17:01:19.519Z,99798.06
2022-09-16T17:03:54.338Z,99804.56
2022-09-16T17:06:24.523Z,99808.31
2022-09-16T17:08:54.860Z,99808.56
2022-09-16T17:11:25.420Z,99814.78
2022-09-16T17:14:09.031Z,99813.16
2022-09-16T17:16:39.427Z,99820.72
2022-09-16T17:19:09.662Z,99808.28
2022-09-16T17:21:40.957Z,99808.53
2022-09-16T17:24:11.141Z,99808.78
2022-09-16T17:26:41.888Z,99820.13
2022-09-16T17:29:15.906Z,99804.47
2022-09-16T17:31:46.897Z,99806.34
2022-09-16T17:34:17.853Z,99813.63
2022-09-16T17:36:49.373Z,99810.38
2022-09-16T17:39:22.868Z,99803.34
2022-09-16T17:41:53.515Z,99815.22
2022-09-16T17:44:23.510Z,99820.06
2022-09-16T17:46:53.465Z,99819.50
2022-09-16T17:49:26.046Z,99823.28
2022-09-16T17:51:56.242Z,99826.47
2022-09-16T17:54:26.349Z,99825.94
2022-09-16T17:56:56.349Z,99832.38
2022-09-16T17:59:26.851Z,99839.88
2022-09-16T18:01:56.843Z,99835.84
2022-09-16T18:04:26.984Z,99846.88
2022-09-16T18:06:57.894Z,99838.78
2022-09-16T18:09:28.009Z,99837.44
2022-09-16T18:11:59.841Z,99842.84
2022-09-16T18:14:30.079Z,99838.50
2022-09-16T18:17:01.104Z,99837.13
2022-09-16T18:19:31.481Z,99838.22
2022-09-16T18:22:01.461Z,99841.97
2022-09-16T18:24:31.433Z,99850.03
2022-09-16T18:27:02.547Z,99849.50
2022-09-16T18:29:33.486Z,99851.91
2022-09-16T18:32:03.177Z,99845.16
2022-09-16T18:34:33.787Z,99845.91
2022-09-16T18:37:04.847Z,99845.88
2022-09-16T18:39:35.604Z,99851.50
2022-09-16T18:42:06.345Z,99838.53
2022-09-16T18:44:36.835Z,99845.00
2022-09-16T18:47:07.047Z,99839.56
2022-09-16T18:49:37.526Z,99846.03
2022-09-16T18:52:07.545Z,99842.78
2022-09-16T18:54:37.556Z,99855.69
2022-09-16T18:57:08.291Z,99851.94
2022-09-16T18:59:38.808Z,99847.63
2022-09-16T19:02:12.012Z,99852.44
2022-09-16T19:04:44.292Z,99853.75
2022-09-16T19:07:15.884Z,99866.91
2022-09-16T19:09:48.015Z,99868.00
2022-09-16T19:12:18.180Z,99874.44
2022-09-16T19:14:48.059Z,99876.59
2022-09-16T19:17:18.187Z,99876.34
2022-09-16T19:19:51.964Z,99872.53
2022-09-16T19:22:22.717Z,99867.41
2022-09-16T19:24:55.379Z,99857.13
2022-09-16T19:27:28.836Z,99860.63
2022-09-16T19:29:59.775Z,99874.09
2022-09-16T19:32:33.051Z,99884.06
2022-09-16T19:35:03.266Z,99882.66
2022-09-16T19:37:34.445Z,99893.44
2022-09-16T19:40:04.609Z,99888.34
2022-09-16T19:42:34.618Z,99886.69
2022-09-16T19:45:05.179Z,99887.75
2022-09-16T19:47:34.683Z,99893.97
2022-09-16T19:50:04.710Z,99883.44
2022-09-16T19:52:37.873Z,99886.94
2022-09-16T19:55:09.965Z,99885.34
2022-09-16T19:57:41.853Z,99891.19
2022-09-16T20:00:16.232Z,99892.81
2022-09-16T20:02:47.905Z,99899.50
2022-09-16T20:05:18.543Z,99896.28
2022-09-16T20:07:48.658Z,99897.88
2022-09-16T20:10:19.430Z,99897.88
2022-09-16T20:12:50.046Z,99884.94
2022-09-16T20:15:23.344Z,99895.13
2022-09-16T20:17:53.827Z,99902.41
2022-09-16T20:20:23.808Z,99904.53
2022-09-16T20:22:53.999Z,99904.53
2022-09-16T20:25:24.392Z,99916.34
2022-09-16T20:27:54.965Z,99913.09
2022-09-16T20:30:25.478Z,99923.06
2022-09-16T20:32:55.556Z,99928.44
2022-09-16T20:35:25.666Z,99932.72
2022-09-16T20:37:55.648Z,99931.56
2022-09-16T20:40:25.723Z,99938.84
2022-09-16T20:42:55.285Z,99947.41
2022-09-16T20:45:25.349Z,99955.41
2022-09-16T20:47:55.628Z,99957.78
2022-09-16T20:50:25.617Z,99949.72
2022-09-16T20:52:55.598Z,99951.34
2022-09-16T20:55:25.592Z,99945.97
2022-09-16T20:57:55.611Z,99946.22
2022-09-16T21:00:25.644Z,99959.69
2022-09-16T21:02:56.210Z,99960.97
2022-09-16T21:05:26.012Z,99972.25
2022-09-16T21:08:00.178Z,99967.84
2022-09-16T21:10:30.080Z,99966.72
2022-09-16T21:13:00.178Z,99965.59
2022-09-16T21:15:30.478Z,99967.69
2022-09-16T21:18:01.019Z,99968.22
2022-09-16T21:20:31.146Z,99976.03
2022-09-16T21:23:02.083Z,99982.22
2022-09-16T21:25:33.389Z,99973.06
2022-09-16T21:28:05.062Z,99977.34
2022-09-16T21:30:35.231Z,99981.06
2022-09-16T21:33:05.328Z,99991.84
2022-09-16T21:35:35.312Z,99989.13
2022-09-16T21:38:05.692Z,99993.72
2022-09-16T21:40:39.118Z,99996.66
2022-09-16T21:43:10.188Z,99992.34
2022-09-16T21:45:46.198Z,99988.56
2022-09-16T21:48:17.918Z,99990.94
2022-09-16T21:50:51.590Z,99997.09
2022-09-16T21:53:22.980Z,100006.19
2022-09-16T21:55:53.061Z,100012.03
2022-09-16T21:58:22.982Z,100018.28
2022-09-16T22:00:52.892Z,100014.97
2022-09-16T22:03:22.957Z,100030.66
2022-09-16T22:05:52.856Z,100024.66
2022-09-16T22:08:22.763Z,100029.84
2022-09-16T22:10:52.999Z,100033.53
2022-09-16T22:13:23.497Z,100047.22
2022-09-16T22:15:54.331Z,100049.13
2022-09-16T22:18:25.960Z,100043.75
2022-09-16T22:20:59.008Z,100052.88
2022-09-16T22:23:29.432Z,100057.66
2022-09-16T22:25:59.484Z,100057.66
2022-09-16T22:28:29.430Z,100062.72
2022-09-16T22:31:11.510Z,100063.56
2022-09-16T22:33:43.277Z,100074.31
2022-09-16T22:36:21.532Z,100068.94
2022-09-16T22:38:54.057Z,100079.69
2022-09-16T22:41:26.449Z,100075.91
2022-09-16T22:43:56.958Z,100079.94
2022-09-16T22:46:31.156Z,100092.06
2022-09-16T22:49:02.247Z,100084.47
2022-09-16T22:51:33.701Z,100093.63
2022-09-16T22:54:03.941Z,100083.91
2022-09-16T22:56:35.109Z,100085.88
2022-09-16T22:59:05.708Z,100088.31
2022-09-16T23:01:41.629Z,100089.94
2022-09-16T23:04:12.217Z,100093.22
2022-09-16T23:06:44.048Z,100103.47
2022-09-16T23:09:16.061Z,100105.97
2022-09-16T23:11:46.961Z,100099.78
2022-09-16T23:14:27.856Z,100100.09
2022-09-16T23:16:59.164Z,100106.28
2022-09-16T23:19:29.309Z,100100.66
2022-09-16T23:21:59.247Z,100104.50
2022-09-16T23:24:29.167Z,100102.13
2022-09-16T23:26:59.050Z,100104.09
2022-09-16T23:29:28.951Z,100102.56
2022-09-16T23:31:59.169Z,100104.53
2022-09-16T23:34:29.096Z,100102.97
2022-09-16T23:37:00.093Z,100099.31
2022-09-16T23:39:30.719Z,100101.00
2022-09-16T23:42:00.775Z,100107.63
2022-09-16T23:44:31.730Z,100112.59
2022-09-16T23:47:01.844Z,100114.31
2022-09-16T23:49:32.351Z,100109.81
2022-09-16T23:52:02.415Z,100119.38
2022-09-16T23:54:32.335Z,100113.00
2022-09-16T23:57:02.216Z,100112.00
2022-09-16T23:59:32.097Z,100120.16
